Time;durP1;ratioP1;P1;durP2;ratioP2;P2;SDS_P1;SDS_P2;PMS_P1;PMS_P2;Temp;Humidity;BMP_temperature;BMP_pressure;BME280_temperature;BME280_humidity;BME280_pressure;Samples;Min_cycle;Max_cycle;Signal;HPM_P1;HPM_P2
2021/04/07 00:00:11;;;;;;;;;;;;;;;23.32;37.46;98734.69;4399151;32;34857;-57
2021/04/07 00:02:38;;;;;;;;;;;;;;;23.31;37.48;98733.00;4393038;32;34887;-56
2021/04/07 00:05:06;;;;;;;;;;;;;;;23.30;37.51;98727.84;4392803;32;34310;-57
2021/04/07 00:07:33;;;;;;;;;;;;;;;23.30;37.49;98730.56;4392859;32;33369;-52
2021/04/07 00:10:01;;;;;;;;;;;;;;;23.30;37.51;98733.28;4392749;32;34044;-51
2021/04/07 00:12:28;;;;;;;;;;;;;;;23.29;37.50;98720.75;4402494;32;33725;-54
2021/04/07 00:14:54;;;;;;;;;;;;;;;23.29;37.54;98720.75;4407701;32;33940;-55
2021/04/07 00:17:21;;;;;;;;;;;;;;;23.27;37.54;98726.44;4407816;32;34440;-56
2021/04/07 00:19:48;;;;;;;;;;;;;;;23.27;37.59;98734.63;4407651;32;34156;-53
2021/04/07 00:22:15;;;;;;;;;;;;;;;23.27;37.54;98729.19;4407872;32;34555;-56
2021/04/07 00:24:45;;;;;;;;;;;;;;;23.26;37.59;98727.50;4406739;32;34825;-54
2021/04/07 00:27:14;;;;;;;;;;;;;;;23.27;37.64;98718.28;4407793;32;32912;-57
2021/04/07 00:29:41;;;;;;;;;;;;;;;23.25;37.60;98720.41;4407924;32;34743;-53
2021/04/07 00:32:08;;;;;;;;;;;;;;;23.26;37.64;98719.34;4404726;32;34211;-52
2021/04/07 00:34:35;;;;;;;;;;;;;;;23.25;37.65;98722.31;4396498;32;33882;-56
2021/04/07 00:37:01;;;;;;;;;;;;;;;23.24;37.61;98716.06;4377070;32;33143;-56
2021/04/07 00:39:29;;;;;;;;;;;;;;;23.23;37.65;98711.69;4377660;32;34007;-57
2021/04/07 00:42:00;;;;;;;;;;;;;;;23.23;37.69;98716.31;4386142;32;34241;-58
2021/04/07 00:44:27;;;;;;;;;;;;;;;23.23;37.66;98714.41;4392065;32;34219;-58
2021/04/07 00:46:54;;;;;;;;;;;;;;;23.23;37.70;98716.31;4392210;32;33399;-58
2021/04/07 00:49:22;;;;;;;;;;;;;;;23.22;37.71;98717.38;4392711;32;34068;-57
2021/04/07 00:51:48;;;;;;;;;;;;;;;23.21;37.74;98713.81;4392565;32;35032;-59
2021/04/07 00:54:16;;;;;;;;;;;;;;;23.21;37.78;98722.00;4391337;32;34169;-55
2021/04/07 00:56:44;;;;;;;;;;;;;;;23.20;37.82;98716.81;4392428;32;33568;-56
2021/04/07 00:59:12;;;;;;;;;;;;;;;23.21;37.83;98718.44;4392702;32;34812;-53
2021/04/07 01:01:39;;;;;;;;;;;;;;;23.20;37.83;98719.53;4392508;32;34322;-57
2021/04/07 01:04:06;;;;;;;;;;;;;;;23.19;37.88;98717.88;4389398;32;34113;-59
2021/04/07 01:06:36;;;;;;;;;;;;;;;23.18;37.94;98717.06;4364394;32;34101;-58
2021/04/07 01:09:03;;;;;;;;;;;;;;;23.18;38.00;98717.06;4363993;32;33957;-54
2021/04/07 01:11:31;;;;;;;;;;;;;;;23.16;38.00;98713.75;4377235;32;34184;-51
2021/04/07 01:13:58;;;;;;;;;;;;;;;23.16;37.99;98714.59;4378848;32;34149;-58
2021/04/07 01:16:25;;;;;;;;;;;;;;;23.16;38.10;98713.75;4392315;32;33085;-55
2021/04/07 01:18:51;;;;;;;;;;;;;;;23.15;38.00;98704.78;4392264;32;33833;-56
2021/04/07 01:21:18;;;;;;;;;;;;;;;23.16;38.25;98720.03;4378743;32;34192;-58
2021/04/07 01:23:46;;;;;;;;;;;;;;;23.15;38.19;98710.22;4391856;32;34129;-56
2021/04/07 01:26:13;;;;;;;;;;;;;;;23.14;38.38;98718.66;4377411;32;33293;-59
2021/04/07 01:28:47;;;;;;;;;;;;;;;23.14;38.37;98716.75;4384004;32;34848;-58
2021/04/07 01:31:14;;;;;;;;;;;;;;;23.14;38.38;98722.19;4392500;32;34951;-57
2021/04/07 01:33:41;;;;;;;;;;;;;;;23.13;38.48;98723.25;4378687;32;33949;-56
2021/04/07 01:36:08;;;;;;;;;;;;;;;23.13;38.45;98723.25;4388608;32;32036;-57
2021/04/07 01:38:35;;;;;;;;;;;;;;;23.13;38.47;98717.81;4392375;32;33740;-69
2021/04/07 01:41:03;;;;;;;;;;;;;;;23.12;38.42;98721.59;4392010;32;34206;-55
2021/04/07 01:43:30;;;;;;;;;;;;;;;23.13;38.27;98727.87;4392173;32;34660;-53
2021/04/07 01:45:57;;;;;;;;;;;;;;;23.13;37.87;98720.53;4365186;32;33566;-57
2021/04/07 01:48:24;;;;;;;;;;;;;;;23.11;38.18;98728.13;4376464;32;34054;-56
2021/04/07 01:50:51;;;;;;;;;;;;;;;23.12;38.17;98716.16;4377187;32;34171;-56
2021/04/07 01:53:18;;;;;;;;;;;;;;;23.12;38.12;98720.78;4363535;32;34255;-52
2021/04/07 01:55:45;;;;;;;;;;;;;;;23.11;38.04;98730.03;4388413;32;33378;-58
2021/04/07 01:58:32;;;;;;;;;;;;;;;23.11;38.17;98730.03;4392167;32;33720;-52
2021/04/07 02:00:59;;;;;;;;;;;;;;;23.10;38.13;98733.81;4391940;32;34887;-53
2021/04/07 02:03:26;;;;;;;;;;;;;;;23.09;38.14;98735.72;4392160;32;34175;-53
2021/04/07 02:05:53;;;;;;;;;;;;;;;23.09;38.29;98732.19;4379001;32;34012;-54
2021/04/07 02:08:20;;;;;;;;;;;;;;;23.08;38.21;98736.78;4377081;32;34766;-55
2021/04/07 02:10:47;;;;;;;;;;;;;;;23.07;38.15;98729.69;4377248;32;34082;-57
2021/04/07 02:13:15;;;;;;;;;;;;;;;23.08;38.23;98730.50;4376993;32;33659;-55
2021/04/07 02:15:42;;;;;;;;;;;;;;;23.07;38.19;98732.41;4388005;32;33342;-52
2021/04/07 02:18:09;;;;;;;;;;;;;;;23.07;38.19;98735.13;4392288;32;34911;-51
2021/04/07 02:20:36;;;;;;;;;;;;;;;23.06;38.18;98730.75;4392028;32;34063;-51
2021/04/07 02:23:03;;;;;;;;;;;;;;;23.06;38.24;98727.22;4391842;32;34718;-58
2021/04/07 02:25:30;;;;;;;;;;;;;;;23.05;38.24;98723.69;4381930;32;32915;-57
2021/04/07 02:27:57;;;;;;;;;;;;;;;23.06;38.29;98729.94;4376950;32;34033;-55
2021/04/07 02:30:23;;;;;;;;;;;;;;;23.05;38.41;98729.13;4363164;32;34301;-57
2021/04/07 02:32:50;;;;;;;;;;;;;;;23.05;38.32;98733.75;4376780;32;34883;-59
2021/04/07 02:35:17;;;;;;;;;;;;;;;23.04;38.38;98727.47;4384914;32;33637;-59
2021/04/07 02:37:44;;;;;;;;;;;;;;;23.04;38.42;98730.22;4391721;32;34801;-56
2021/04/07 02:40:11;;;;;;;;;;;;;;;23.04;38.39;98727.47;4391843;32;33829;-56
2021/04/07 02:42:38;;;;;;;;;;;;;;;23.04;38.32;98735.66;4391850;32;33803;-57
2021/04/07 02:45:05;;;;;;;;;;;;;;;23.03;38.37;98733.97;4384594;32;33985;-56
2021/04/07 02:47:33;;;;;;;;;;;;;;;23.04;38.31;98737.53;4376579;32;33795;-54
2021/04/07 02:50:00;;;;;;;;;;;;;;;23.05;38.25;98734.56;4376635;32;33662;-55
2021/04/07 02:52:28;;;;;;;;;;;;;;;23.07;38.40;98743.28;4376719;32;34090;-56
2021/04/07 02:54:55;;;;;;;;;;;;;;;23.15;38.44;98734.72;4382336;32;33680;-58
2021/04/07 02:57:22;;;;;;;;;;;;;;;23.29;38.42;98737.06;4382346;32;33720;-53
2021/04/07 02:59:49;;;;;;;;;;;;;;;23.45;38.39;98743.53;4376147;32;34335;-53
2021/04/07 03:02:17;;;;;;;;;;;;;;;23.62;38.19;98747.88;4375678;32;33689;-51
2021/04/07 03:04:44;;;;;;;;;;;;;;;23.80;37.92;98757.66;4380844;32;32823;-52
2021/04/07 03:07:11;;;;;;;;;;;;;;;23.96;37.72;98753.19;4391624;32;34308;-56
2021/04/07 03:09:38;;;;;;;;;;;;;;;24.11;37.50;98766.19;4391304;32;34041;-54
2021/04/07 03:12:05;;;;;;;;;;;;;;;24.25;37.27;98766.59;4391500;32;34852;-54
2021/04/07 03:14:31;;;;;;;;;;;;;;;24.39;37.07;98770.59;4388499;32;34025;-54
2021/04/07 03:17:00;;;;;;;;;;;;;;;24.49;36.91;98775.34;4376114;32;33593;-53
2021/04/07 03:19:27;;;;;;;;;;;;;;;24.59;36.80;98780.87;4376287;32;35010;-50
2021/04/07 03:21:54;;;;;;;;;;;;;;;24.67;36.68;98786.69;4376468;32;34919;-50
2021/04/07 03:24:21;;;;;;;;;;;;;;;24.73;36.61;98784.00;4377706;32;34509;-57
2021/04/07 03:26:48;;;;;;;;;;;;;;;24.78;36.52;98784.84;4391338;32;34100;-59
2021/04/07 03:29:15;;;;;;;;;;;;;;;24.82;36.48;98786.00;4391184;32;33756;-56
2021/04/07 03:31:42;;;;;;;;;;;;;;;24.85;36.49;98785.44;4391023;32;34125;-59
2021/04/07 03:34:08;;;;;;;;;;;;;;;24.87;36.49;98788.75;4390600;32;33816;-58
2021/04/07 03:36:35;;;;;;;;;;;;;;;24.87;36.49;98791.50;4375930;32;34110;-56
2021/04/07 03:39:03;;;;;;;;;;;;;;;24.88;36.50;98790.41;4375941;32;35028;-58
2021/04/07 03:41:29;;;;;;;;;;;;;;;24.87;36.63;98790.66;4362379;32;34850;-58
2021/04/07 03:43:56;;;;;;;;;;;;;;;24.86;36.66;98789.84;4375985;32;33265;-58
2021/04/07 03:46:23;;;;;;;;;;;;;;;24.85;36.64;98798.28;4389591;32;33997;-56
2021/04/07 03:48:50;;;;;;;;;;;;;;;24.84;36.60;98799.38;4390965;32;34105;-54
2021/04/07 03:51:17;;;;;;;;;;;;;;;24.83;36.61;98808.62;4391012;32;34970;-58
2021/04/07 03:53:46;;;;;;;;;;;;;;;24.80;36.59;98803.69;4390727;32;33976;-57
2021/04/07 03:56:13;;;;;;;;;;;;;;;24.78;36.65;98817.59;4377667;32;35004;-59
2021/04/07 03:58:39;;;;;;;;;;;;;;;24.75;36.58;98817.28;4375738;32;34168;-56
2021/04/07 04:01:07;;;;;;;;;;;;;;;24.72;36.62;98817.81;4375549;32;34100;-58
2021/04/07 04:03:34;;;;;;;;;;;;;;;24.69;36.58;98828.16;4375763;32;33345;-57
2021/04/07 04:06:01;;;;;;;;;;;;;;;24.67;36.72;98827.59;4373340;32;34717;-54
2021/04/07 04:08:28;;;;;;;;;;;;;;;24.63;36.75;98826.47;4390497;32;34107;-58
2021/04/07 04:10:55;;;;;;;;;;;;;;;24.61;36.80;98834.06;4390543;32;34258;-56
2021/04/07 04:13:22;;;;;;;;;;;;;;;24.59;36.84;98838.97;4392350;32;33448;-58
2021/04/07 04:15:49;;;;;;;;;;;;;;;24.56;36.80;98834.03;4382386;32;33893;-54
2021/04/07 04:18:16;;;;;;;;;;;;;;;24.54;36.71;98830.75;4377734;32;34757;-54
2021/04/07 04:20:43;;;;;;;;;;;;;;;24.52;36.76;98837.50;4378007;32;35513;-55
2021/04/07 04:23:09;;;;;;;;;;;;;;;24.50;36.82;98840.50;4376558;32;33323;-58
2021/04/07 04:25:37;;;;;;;;;;;;;;;24.48;36.98;98837.22;4385690;32;34047;-55
2021/04/07 04:28:03;;;;;;;;;;;;;;;24.45;37.02;98845.91;4392712;32;34202;-59
2021/04/07 04:30:30;;;;;;;;;;;;;;;24.43;37.03;98839.88;4392590;32;34468;-54
2021/04/07 04:32:58;;;;;;;;;;;;;;;24.38;37.01;98848.00;4392626;32;33326;-57
2021/04/07 04:35:24;;;;;;;;;;;;;;;24.35;37.06;98845.78;4385503;32;34906;-57
2021/04/07 04:37:51;;;;;;;;;;;;;;;24.34;37.11;98852.28;4377358;32;34524;-53
2021/04/07 04:40:18;;;;;;;;;;;;;;;24.31;37.16;98850.09;4376922;32;33786;-56
2021/04/07 04:42:46;;;;;;;;;;;;;;;24.29;37.13;98854.94;4387418;32;33290;-55
2021/04/07 04:45:13;;;;;;;;;;;;;;;24.26;37.23;98858.22;4394071;32;33677;-53
2021/04/07 04:47:40;;;;;;;;;;;;;;;24.23;37.29;98864.16;4391489;32;33701;-56
2021/04/07 04:50:07;;;;;;;;;;;;;;;24.22;37.35;98873.41;4407633;32;34043;-53
2021/04/07 04:52:34;;;;;;;;;;;;;;;24.18;37.33;98873.91;4399867;32;32869;-54
2021/04/07 04:55:03;;;;;;;;;;;;;;;24.16;37.39;98878.81;4392691;32;33710;-53
2021/04/07 04:57:31;;;;;;;;;;;;;;;24.14;37.44;98883.66;4392361;32;34087;-55
2021/04/07 04:59:57;;;;;;;;;;;;;;;24.12;37.43;98883.13;4395368;32;34386;-53
2021/04/07 05:02:25;;;;;;;;;;;;;;;24.10;37.44;98898.88;4367008;32;33033;-57
2021/04/07 05:04:51;;;;;;;;;;;;;;;24.08;37.47;98894.78;4392426;32;34573;-51
2021/04/07 05:07:18;;;;;;;;;;;;;;;24.06;37.42;98897.75;4390845;32;34190;-63
2021/04/07 05:09:45;;;;;;;;;;;;;;;24.04;37.41;98908.06;4392108;32;34852;-62
2021/04/07 05:12:12;;;;;;;;;;;;;;;24.03;36.71;98909.16;4389700;32;33212;-61
2021/04/07 05:14:39;;;;;;;;;;;;;;;23.99;36.43;98918.91;4363530;32;34755;-62
2021/04/07 05:17:06;;;;;;;;;;;;;;;23.97;35.22;98920.22;4377506;32;34947;-61
2021/04/07 05:19:33;;;;;;;;;;;;;;;23.93;34.46;98928.91;4377261;32;34724;-63
2021/04/07 05:22:00;;;;;;;;;;;;;;;23.90;34.93;98932.13;4377812;32;34033;-62
2021/04/07 05:24:27;;;;;;;;;;;;;;;23.91;34.90;98932.94;4391294;32;33702;-61
2021/04/07 05:26:54;;;;;;;;;;;;;;;23.87;34.78;98931.78;4392009;32;35190;-59
2021/04/07 05:29:20;;;;;;;;;;;;;;;23.85;34.46;98937.50;4392179;32;34239;-60
2021/04/07 05:31:48;;;;;;;;;;;;;;;23.81;34.45;98944.53;4396881;32;33323;-60
2021/04/07 05:34:14;;;;;;;;;;;;;;;23.79;34.64;98940.41;4391619;32;32940;-62
2021/04/07 05:36:41;;;;;;;;;;;;;;;23.76;34.88;98946.34;4391516;32;34116;-62
2021/04/07 05:39:08;;;;;;;;;;;;;;;23.74;35.10;98953.97;4384180;32;34508;-61
2021/04/07 05:41:35;;;;;;;;;;;;;;;23.71;35.08;98955.28;4405660;32;34013;-61
2021/04/07 05:44:02;;;;;;;;;;;;;;;23.69;35.12;98951.97;4381967;32;33674;-61
2021/04/07 05:46:29;;;;;;;;;;;;;;;23.67;35.08;98949.50;4389206;32;34517;-59
2021/04/07 05:48:56;;;;;;;;;;;;;;;23.68;35.01;98944.88;4389237;32;34691;-60
2021/04/07 05:51:23;;;;;;;;;;;;;;;23.67;35.32;98957.66;4375073;32;32996;-60
2021/04/07 05:53:50;;;;;;;;;;;;;;;23.65;35.34;98954.38;4383207;32;33861;-61
2021/04/07 05:56:23;;;;;;;;;;;;;;;23.65;35.45;98951.66;4390852;32;34194;-61
2021/04/07 05:58:50;;;;;;;;;;;;;;;23.65;35.54;98956.28;4391861;32;34224;-61
2021/04/07 06:01:17;;;;;;;;;;;;;;;23.63;35.61;98959.19;4390961;32;33636;-58
2021/04/07 06:03:44;;;;;;;;;;;;;;;23.62;35.69;98960.28;4376779;32;34802;-58
2021/04/07 06:06:11;;;;;;;;;;;;;;;23.62;35.69;98968.44;4376722;32;33643;-59
2021/04/07 06:08:38;;;;;;;;;;;;;;;23.61;35.68;98966.81;4376943;32;35345;-61
2021/04/07 06:11:05;;;;;;;;;;;;;;;23.60;35.91;98970.59;4363548;32;33779;-61
2021/04/07 06:13:32;;;;;;;;;;;;;;;23.59;36.00;98977.09;4386973;32;33563;-61
2021/04/07 06:15:59;;;;;;;;;;;;;;;23.58;36.07;98970.00;4391899;32;33552;-61
2021/04/07 06:18:27;;;;;;;;;;;;;;;23.59;36.16;98979.81;4391830;32;33916;-61
2021/04/07 06:20:53;;;;;;;;;;;;;;;23.59;36.29;98974.38;4392086;32;34024;-56
2021/04/07 06:23:20;;;;;;;;;;;;;;;23.59;36.32;98985.25;4391423;32;33950;-61
2021/04/07 06:25:47;;;;;;;;;;;;;;;23.58;36.40;98980.91;4377828;32;32702;-59
2021/04/07 06:28:14;;;;;;;;;;;;;;;23.58;36.41;98982.81;4396168;32;34429;-59
2021/04/07 06:30:45;;;;;;;;;;;;;;;23.57;36.48;98987.44;4395912;32;33006;-61
2021/04/07 06:33:13;;;;;;;;;;;;;;;23.56;36.52;98985.78;4390799;32;35395;-61
2021/04/07 06:35:40;;;;;;;;;;;;;;;23.56;36.60;98998.56;4391319;32;34203;-58
2021/04/07 06:38:07;;;;;;;;;;;;;;;23.56;36.65;98993.94;4389723;32;34351;-61
2021/04/07 06:40:34;;;;;;;;;;;;;;;23.55;36.70;99003.19;4388943;32;33408;-59
2021/04/07 06:43:01;;;;;;;;;;;;;;;23.55;36.73;98994.19;4394497;32;34839;-61
2021/04/07 06:45:29;;;;;;;;;;;;;;;23.54;36.75;99003.44;4388056;32;33748;-60
2021/04/07 06:47:56;;;;;;;;;;;;;;;23.53;36.74;99007.22;4406873;32;34435;-59
2021/04/07 06:50:23;;;;;;;;;;;;;;;23.53;36.68;99002.59;4395808;32;32956;-61
2021/04/07 06:52:50;;;;;;;;;;;;;;;23.50;36.69;99007.72;4387895;32;34145;-59
2021/04/07 06:55:17;;;;;;;;;;;;;;;23.50;36.64;99018.59;4391074;32;34893;-60
2021/04/07 06:57:44;;;;;;;;;;;;;;;23.49;36.78;99006.06;4388918;32;34025;-60
2021/04/07 07:00:11;;;;;;;;;;;;;;;23.48;36.78;99007.12;4383240;32;32918;-59
2021/04/07 07:02:39;;;;;;;;;;;;;;;23.48;36.79;99015.31;4391222;32;34130;-59
2021/04/07 07:05:06;;;;;;;;;;;;;;;23.48;36.81;99010.69;4399220;32;35026;-58
2021/04/07 07:07:33;;;;;;;;;;;;;;;23.49;36.81;99006.88;4406581;32;34062;-58
2021/04/07 07:10:00;;;;;;;;;;;;;;;23.49;36.87;99008.78;4406268;32;33092;-59
2021/04/07 07:12:30;;;;;;;;;;;;;;;23.48;36.92;99013.41;4406402;32;34023;-57
2021/04/07 07:14:58;;;;;;;;;;;;;;;23.48;36.98;99010.69;4400705;32;34894;-54
2021/04/07 07:17:26;;;;;;;;;;;;;;;23.48;36.99;99015.31;4391158;32;33717;-61
2021/04/07 07:19:53;;;;;;;;;;;;;;;23.48;37.04;99018.84;4391077;32;33480;-61
2021/04/07 07:22:20;;;;;;;;;;;;;;;23.48;37.06;99020.75;4391393;32;34100;-61
2021/04/07 07:24:50;;;;;;;;;;;;;;;23.47;37.09;99013.66;4391227;32;34127;-59
2021/04/07 07:27:20;;;;;;;;;;;;;;;23.47;37.07;99016.38;4390722;32;34966;-58
2021/04/07 07:29:54;;;;;;;;;;;;;;;23.45;37.15;99016.59;4390582;32;33475;-60
2021/04/07 07:32:30;;;;;;;;;;;;;;;23.46;37.14;99015.56;4391035;32;34144;-61
2021/04/07 07:35:16;;;;;;;;;;;;;;;23.46;37.22;99020.19;4390838;32;34921;-58
2021/04/07 07:37:43;;;;;;;;;;;;;;;23.46;37.19;99020.19;4390790;32;34929;-60
2021/04/07 07:40:16;;;;;;;;;;;;;;;23.44;37.21;99023.13;4391063;32;33702;-58
2021/04/07 07:42:43;;;;;;;;;;;;;;;23.42;37.28;99019.84;4390698;32;34222;-61
2021/04/07 07:45:10;;;;;;;;;;;;;;;23.42;37.22;99023.38;4376746;32;33518;-60
2021/04/07 07:47:39;;;;;;;;;;;;;;;23.42;37.11;99023.38;4389247;32;34010;-59
2021/04/07 07:50:06;;;;;;;;;;;;;;;23.42;37.06;99028.84;4393027;32;33953;-58
2021/04/07 07:52:34;;;;;;;;;;;;;;;23.43;37.12;99038.66;4378687;32;33602;-59
2021/04/07 07:55:11;;;;;;;;;;;;;;;23.42;37.16;99050.63;4383660;32;34175;-61
2021/04/07 07:57:38;;;;;;;;;;;;;;;23.42;37.15;99055.25;4364091;32;34822;-59
2021/04/07 08:00:08;;;;;;;;;;;;;;;23.40;37.18;99055.47;4377675;32;33947;-60
2021/04/07 08:02:38;;;;;;;;;;;;;;;23.41;37.18;99059.03;4377621;32;33700;-60
2021/04/07 08:05:14;;;;;;;;;;;;;;;23.39;37.20;99064.69;4378152;32;34154;-61
2021/04/07 08:07:41;;;;;;;;;;;;;;;23.39;37.18;99069.31;4377565;32;34847;-60
2021/04/07 08:10:09;;;;;;;;;;;;;;;23.39;37.27;99070.16;4377664;32;33370;-56
2021/04/07 08:12:36;;;;;;;;;;;;;;;23.38;37.25;99064.97;4377177;32;34976;-59
2021/04/07 08:15:03;;;;;;;;;;;;;;;23.38;37.30;99071.22;4377542;32;34949;-59
2021/04/07 08:17:30;;;;;;;;;;;;;;;23.39;37.29;99072.06;4363951;32;35155;-57
2021/04/07 08:19:57;;;;;;;;;;;;;;;23.37;37.38;99066.84;4377162;32;32998;-59
2021/04/07 08:22:24;;;;;;;;;;;;;;;23.37;37.33;99074.19;4364212;32;34804;-56
2021/04/07 08:24:51;;;;;;;;;;;;;;;23.37;37.40;99074.19;4363942;32;33714;-59
2021/04/07 08:27:19;;;;;;;;;;;;;;;23.36;37.34;99069.81;4377449;32;34171;-58
2021/04/07 08:29:46;;;;;;;;;;;;;;;23.37;37.48;99076.91;4364085;32;33080;-55
2021/04/07 08:32:13;;;;;;;;;;;;;;;23.36;37.51;99078.81;4363827;32;35443;-59
2021/04/07 08:34:40;;;;;;;;;;;;;;;23.36;37.37;99067.94;4377329;32;34934;-57
2021/04/07 08:37:07;;;;;;;;;;;;;;;23.36;37.53;99078.81;4377188;32;34096;-59
2021/04/07 08:39:41;;;;;;;;;;;;;;;23.35;37.47;99070.87;4389139;32;33275;-58
2021/04/07 08:42:08;;;;;;;;;;;;;;;23.36;37.46;99080.69;4392261;32;34850;-57
2021/04/07 08:44:34;;;;;;;;;;;;;;;23.36;37.49;99080.69;4378693;32;34130;-57
2021/04/07 08:47:03;;;;;;;;;;;;;;;23.34;37.42;99066.50;4392132;32;33720;-59
2021/04/07 08:49:36;;;;;;;;;;;;;;;23.34;37.58;99077.41;4392286;32;32872;-58
2021/04/07 08:52:13;;;;;;;;;;;;;;;23.34;37.45;99080.13;4392497;32;34034;-59
2021/04/07 08:54:41;;;;;;;;;;;;;;;23.33;37.55;99090.19;4392150;32;34105;-59
2021/04/07 08:57:09;;;;;;;;;;;;;;;23.32;37.53;99077.66;4392242;32;34779;-59
2021/04/07 08:59:45;;;;;;;;;;;;;;;23.33;37.57;99081.19;4392348;32;33368;-58
2021/04/07 09:02:15;;;;;;;;;;;;;;;23.32;37.65;99085.00;4378557;32;34250;-58
2021/04/07 09:04:42;;;;;;;;;;;;;;;23.32;37.61;99088.53;4392340;32;34179;-58
2021/04/07 09:07:11;;;;;;;;;;;;;;;23.32;37.68;99087.72;4378345;32;35600;-59
2021/04/07 09:09:38;;;;;;;;;;;;;;;23.32;37.67;99091.25;4392363;32;33109;-56
2021/04/07 09:12:05;;;;;;;;;;;;;;;23.32;37.69;99083.09;4392209;32;34077;-58
2021/04/07 09:14:34;;;;;;;;;;;;;;;23.32;37.76;99088.53;4378683;32;35081;-59
2021/04/07 09:17:04;;;;;;;;;;;;;;;23.32;37.73;99085.00;4365959;32;34475;-59
2021/04/07 09:19:33;;;;;;;;;;;;;;;23.32;37.71;99095.88;4392176;32;34540;-59
2021/04/07 09:22:00;;;;;;;;;;;;;;;23.32;37.73;99102.16;4392055;32;35603;-60
2021/04/07 09:24:35;;;;;;;;;;;;;;;23.32;37.77;99093.16;4392236;32;34100;-60
2021/04/07 09:27:03;;;;;;;;;;;;;;;23.31;37.83;99091.47;4392145;32;34110;-59
2021/04/07 09:29:30;;;;;;;;;;;;;;;23.31;37.75;99091.47;4391979;32;32995;-61
2021/04/07 09:31:57;;;;;;;;;;;;;;;23.31;37.85;99095.03;4391998;32;33719;-59
2021/04/07 09:34:27;;;;;;;;;;;;;;;23.31;37.86;99092.31;4392030;32;34094;-58
2021/04/07 09:36:54;;;;;;;;;;;;;;;23.31;37.74;99094.22;4378777;32;34502;-59
2021/04/07 09:39:24;;;;;;;;;;;;;;;23.30;37.83;99098.00;4391919;32;32998;-61
2021/04/07 09:41:51;;;;;;;;;;;;;;;23.31;37.83;99099.66;4392111;32;33764;-57
2021/04/07 09:44:18;;;;;;;;;;;;;;;23.31;37.83;99105.91;4382648;32;34130;-60
2021/04/07 09:46:51;;;;;;;;;;;;;;;23.29;37.75;99102.63;4382822;32;34131;-59
2021/04/07 09:49:19;;;;;;;;;;;;;;;23.29;37.91;99096.34;4391945;32;34090;-58
2021/04/07 09:51:48;;;;;;;;;;;;;;;23.28;37.89;99105.59;4392110;32;34610;-54
2021/04/07 09:54:31;;;;;;;;;;;;;;;23.30;37.89;99111.63;4391638;32;34041;-60
2021/04/07 09:56:59;;;;;;;;;;;;;;;23.28;37.91;99103.69;4391762;32;34007;-58
2021/04/07 09:59:35;;;;;;;;;;;;;;;23.28;38.02;99113.78;4391661;32;34178;-59
2021/04/07 10:02:02;;;;;;;;;;;;;;;23.28;37.89;99108.31;4391952;32;34017;-60
2021/04/07 10:04:30;;;;;;;;;;;;;;;23.27;37.98;99114.81;4391946;32;34146;-59
2021/04/07 10:07:07;;;;;;;;;;;;;;;23.27;37.94;99103.91;4392042;32;34036;-60
2021/04/07 10:09:34;;;;;;;;;;;;;;;23.27;38.03;99107.50;4391397;32;33898;-58
2021/04/07 10:12:01;;;;;;;;;;;;;;;23.28;38.04;99113.78;4391704;32;33724;-57
2021/04/07 10:14:27;;;;;;;;;;;;;;;23.27;37.95;99117.53;4378186;32;34136;-61
2021/04/07 10:16:54;;;;;;;;;;;;;;;23.28;38.05;99119.22;4391773;32;34714;-59
2021/04/07 10:19:26;;;;;;;;;;;;;;;23.27;38.06;99120.25;4391725;32;33709;-61
2021/04/07 10:21:56;;;;;;;;;;;;;;;23.27;37.99;99122.97;4391715;32;35574;-60
2021/04/07 10:24:24;;;;;;;;;;;;;;;23.26;38.02;99124.06;4391946;32;34194;-59
2021/04/07 10:26:51;;;;;;;;;;;;;;;23.26;37.97;99119.44;4391700;32;34202;-61
2021/04/07 10:29:24;;;;;;;;;;;;;;;23.26;38.05;99135.75;4377996;32;34096;-59
2021/04/07 10:31:52;;;;;;;;;;;;;;;23.26;38.06;99137.66;4391228;32;34039;-61
2021/04/07 10:34:27;;;;;;;;;;;;;;;23.25;38.02;99125.94;4391661;32;34168;-58
2021/04/07 10:36:54;;;;;;;;;;;;;;;23.25;38.02;99125.13;4391648;32;33546;-59
2021/04/07 10:39:21;;;;;;;;;;;;;;;23.24;38.03;99121.59;4391403;32;32899;-58
2021/04/07 10:41:48;;;;;;;;;;;;;;;23.25;38.02;99125.13;4391632;32;33661;-58
2021/04/07 10:44:41;;;;;;;;;;;;;;;23.24;38.04;99120.75;4391051;32;33198;-58
2021/04/07 10:47:15;;;;;;;;;;;;;;;23.24;37.98;99129.75;4388444;32;34205;-56
2021/04/07 10:49:55;;;;;;;;;;;;;;;23.24;37.95;99118.84;4391370;32;33499;-59
2021/04/07 10:52:32;;;;;;;;;;;;;;;23.23;37.99;99117.22;4391658;32;33610;-58
2021/04/07 10:54:59;;;;;;;;;;;;;;;23.22;38.07;99123.69;4391372;32;34128;-57
2021/04/07 10:57:35;;;;;;;;;;;;;;;23.22;38.22;99129.16;4391436;32;35996;-56
2021/04/07 11:00:05;;;;;;;;;;;;;;;23.22;38.05;99128.31;4391426;32;33711;-59
2021/04/07 11:02:39;;;;;;;;;;;;;;;23.21;38.14;99132.13;4391530;32;33915;-58
2021/04/07 11:05:11;;;;;;;;;;;;;;;23.21;38.08;99124.78;4391191;32;34164;-57
2021/04/07 11:07:38;;;;;;;;;;;;;;;23.21;37.95;99126.66;4391327;32;34125;-58
2021/04/07 11:10:06;;;;;;;;;;;;;;;23.21;38.13;99143.00;4377884;32;32954;-60
2021/04/07 11:12:33;;;;;;;;;;;;;;;23.21;38.09;99141.09;4391180;32;34158;-59
2021/04/07 11:15:02;;;;;;;;;;;;;;;23.21;38.14;99138.38;4377874;32;33829;-60
2021/04/07 11:17:29;;;;;;;;;;;;;;;23.22;38.17;99131.03;4391214;32;34133;-61
2021/04/07 11:20:10;;;;;;;;;;;;;;;23.21;38.17;99138.38;4377421;32;32774;-60
2021/04/07 11:22:36;;;;;;;;;;;;;;;23.22;38.22;99139.22;4392066;32;33716;-60
2021/04/07 11:25:04;;;;;;;;;;;;;;;23.22;38.21;99128.31;4393008;32;34922;-59
2021/04/07 11:27:34;;;;;;;;;;;;;;;23.21;38.21;99141.09;4392954;32;33925;-60
2021/04/07 11:30:02;;;;;;;;;;;;;;;23.22;38.24;99155.53;4392960;32;32385;-60
2021/04/07 11:32:33;;;;;;;;;;;;;;;23.21;38.18;99148.44;4393033;32;34163;-59
2021/04/07 11:43:05;;;;;;;;;;;;;;;23.19;38.43;99154.13;4391459;32;34635;-60
2021/04/07 11:45:31;;;;;;;;;;;;;;;23.17;38.27;99162.56;4377899;32;33855;-60
2021/04/07 11:47:58;;;;;;;;;;;;;;;23.17;38.29;99157.13;4377955;32;34004;-57
2021/04/07 11:50:25;;;;;;;;;;;;;;;23.17;38.27;99159.84;4377658;32;33379;-57
2021/04/07 11:52:52;;;;;;;;;;;;;;;23.17;38.18;99161.69;4378049;32;34771;-58
2021/04/07 11:55:19;;;;;;;;;;;;;;;23.17;38.27;99167.12;4377580;32;34128;-57
2021/04/07 11:57:46;;;;;;;;;;;;;;;23.17;38.29;99158.97;4377558;32;34053;-56
2021/04/07 12:00:14;;;;;;;;;;;;;;;23.16;38.24;99166.31;4364190;32;33947;-59
2021/04/07 12:02:43;;;;;;;;;;;;;;;23.19;38.20;99166.94;4377875;32;34199;-59
2021/04/07 12:05:10;;;;;;;;;;;;;;;23.17;38.08;99170.72;4364154;32;34148;-61
2021/04/07 12:07:37;;;;;;;;;;;;;;;23.17;38.12;99173.44;4364139;32;34007;-61
2021/04/07 12:10:05;;;;;;;;;;;;;;;23.16;38.25;99177.22;4377772;32;33342;-59
2021/04/07 12:12:32;;;;;;;;;;;;;;;23.16;38.27;99169.03;4377558;32;34030;-57
2021/04/07 12:14:59;;;;;;;;;;;;;;;23.17;38.20;99181.59;4377506;32;34104;-58
2021/04/07 12:17:27;;;;;;;;;;;;;;;23.16;38.30;99187.28;4377645;32;34104;-60
2021/04/07 12:19:54;;;;;;;;;;;;;;;23.15;38.26;99175.56;4377334;32;32839;-60
2021/04/07 12:22:21;;;;;;;;;;;;;;;23.16;38.14;99174.47;4377565;32;34064;-60
2021/04/07 12:24:48;;;;;;;;;;;;;;;23.17;38.19;99172.59;4377558;32;34122;-59
2021/04/07 12:27:15;;;;;;;;;;;;;;;23.15;38.27;99163.84;4377478;32;35038;-60
2021/04/07 12:29:42;;;;;;;;;;;;;;;23.17;38.30;99178.03;4377483;32;33681;-61
2021/04/07 12:32:09;;;;;;;;;;;;;;;23.15;38.19;99182.91;4377518;32;35260;-61
2021/04/07 12:34:37;;;;;;;;;;;;;;;23.15;38.05;99186.44;4376983;32;34194;-61
2021/04/07 12:37:04;;;;;;;;;;;;;;;23.14;37.97;99192.97;4377377;32;33990;-62
2021/04/07 12:39:34;;;;;;;;;;;;;;;23.12;37.94;99192.34;4374816;32;31855;-61
2021/04/07 12:42:02;;;;;;;;;;;;;;;23.13;37.94;99188.59;4392365;32;34024;-61
2021/04/07 12:44:28;;;;;;;;;;;;;;;23.12;37.99;99195.06;4378803;32;34162;-61
2021/04/07 12:46:56;;;;;;;;;;;;;;;23.13;37.88;99190.50;4392525;32;34130;-60
2021/04/07 12:49:22;;;;;;;;;;;;;;;23.12;37.97;99177.91;4392258;32;33469;-59
2021/04/07 12:51:49;;;;;;;;;;;;;;;23.12;37.87;99170.59;4392216;32;35193;-58
2021/04/07 12:54:17;;;;;;;;;;;;;;;23.11;37.84;99187.97;4392771;32;34165;-60
2021/04/07 12:56:43;;;;;;;;;;;;;;;23.11;37.92;99190.72;4392269;32;34172;-58
2021/04/07 12:59:10;;;;;;;;;;;;;;;23.11;37.91;99179.81;4392248;32;33312;-59